Time;durP1;ratioP1;P1;durP2;ratioP2;P2;SDS_P1;SDS_P2;PMS_P1;PMS_P2;Temp;Humidity;BMP_temperature;BMP_pressure;BME280_temperature;BME280_humidity;BME280_pressure;Samples;Min_cycle;Max_cycle;Signal;HPM_P1;HPM_P2
2021/10/24 00:01:12;;;;;;;6.00;4.18;;;5.50;74.20;;;;;;6252062;22;20003;-91
2021/10/24 00:03:38;;;;;;;8.90;3.75;;;5.50;74.40;;;;;;6252042;22;20335;-91
2021/10/24 00:06:03;;;;;;;6.82;3.97;;;5.50;74.50;;;;;;6253038;22;19996;-91
2021/10/24 00:08:30;;;;;;;8.57;3.25;;;5.50;74.30;;;;;;6251897;22;20008;-91
2021/10/24 00:10:56;;;;;;;5.38;3.45;;;5.60;74.30;;;;;;6252025;22;19995;-92
2021/10/24 00:13:22;;;;;;;6.68;4.72;;;5.50;74.20;;;;;;6252416;22;20007;-92
2021/10/24 00:15:47;;;;;;;7.88;3.33;;;5.50;74.60;;;;;;6252129;22;20327;-91
2021/10/24 00:18:13;;;;;;;7.05;4.00;;;5.50;74.40;;;;;;6280428;22;20407;-92
2021/10/24 00:20:39;;;;;;;5.97;3.45;;;5.50;74.50;;;;;;6271818;22;20004;-91
2021/10/24 00:23:05;;;;;;;7.32;3.00;;;5.50;74.80;;;;;;6279833;22;19987;-91
2021/10/24 00:25:31;;;;;;;5.95;3.25;;;5.50;74.70;;;;;;6279840;22;20014;-90
2021/10/24 00:27:57;;;;;;;9.27;3.90;;;5.50;75.20;;;;;;6269689;22;20023;-92
2021/10/24 00:30:23;;;;;;;5.13;3.03;;;5.60;75.10;;;;;;6252173;22;20086;-91
2021/10/24 00:32:49;;;;;;;7.72;3.40;;;5.60;74.70;;;;;;6252288;22;20008;-92
2021/10/24 00:35:14;;;;;;;6.47;3.75;;;5.60;74.70;;;;;;6252055;22;20010;-91
2021/10/24 00:37:40;;;;;;;4.30;3.08;;;5.50;74.80;;;;;;6251580;22;20023;-91
2021/10/24 00:40:09;;;;;;;4.13;3.08;;;5.50;75.20;;;;;;6251401;22;20026;-91
2021/10/24 00:42:35;;;;;;;5.35;3.67;;;5.50;75.20;;;;;;6251499;22;20004;-91
2021/10/24 00:45:01;;;;;;;8.15;3.28;;;5.40;75.40;;;;;;6251687;22;20300;-91
2021/10/24 00:47:30;;;;;;;9.98;3.35;;;5.40;75.30;;;;;;6251503;22;20010;-91
2021/10/24 00:49:56;;;;;;;7.95;3.00;;;5.30;75.70;;;;;;6251886;22;20058;-91
2021/10/24 00:52:21;;;;;;;8.73;4.22;;;5.20;75.80;;;;;;6251944;22;19995;-91
2021/10/24 00:54:51;;;;;;;5.45;3.22;;;5.20;76.10;;;;;;6252533;22;19996;-92
2021/10/24 00:57:16;;;;;;;7.13;3.50;;;5.20;76.70;;;;;;6251405;22;20000;-91
2021/10/24 00:59:42;;;;;;;7.70;3.42;;;5.20;76.40;;;;;;6251507;22;20011;-91
2021/10/24 01:02:08;;;;;;;7.30;3.42;;;5.20;76.70;;;;;;6250878;22;19999;-91
2021/10/24 01:04:34;;;;;;;7.22;3.42;;;5.10;76.90;;;;;;6252104;22;19999;-91
2021/10/24 01:07:03;;;;;;;6.82;3.53;;;5.20;77.20;;;;;;6251529;22;20049;-91
2021/10/24 01:09:33;;;;;;;6.60;3.53;;;5.20;78.00;;;;;;6251733;22;20014;-91
2021/10/24 01:11:59;;;;;;;7.95;3.40;;;5.20;77.70;;;;;;6251616;22;20003;-91
2021/10/24 01:14:26;;;;;;;5.97;3.95;;;5.20;77.60;;;;;;6251801;22;20004;-91
2021/10/24 01:16:52;;;;;;;7.60;3.88;;;5.30;77.80;;;;;;6251468;22;20455;-91
2021/10/24 01:19:21;;;;;;;9.32;4.45;;;5.30;77.70;;;;;;6251365;22;20061;-91
2021/10/24 01:21:48;;;;;;;9.00;4.95;;;5.40;77.50;;;;;;6251336;22;20074;-91
2021/10/24 01:24:14;;;;;;;6.68;3.28;;;5.40;77.90;;;;;;6251435;22;20420;-91
2021/10/24 01:26:40;;;;;;;5.97;3.80;;;5.50;78.00;;;;;;6251119;22;20137;-91
2021/10/24 01:29:08;;;;;;;8.45;4.13;;;5.60;77.40;;;;;;6251335;22;20442;-91
2021/10/24 01:31:35;;;;;;;5.10;3.15;;;5.60;77.50;;;;;;6251346;22;20000;-92
2021/10/24 01:34:01;;;;;;;6.38;3.60;;;5.60;77.50;;;;;;6251745;22;20009;-91
2021/10/24 01:36:27;;;;;;;5.32;3.60;;;5.60;77.30;;;;;;6250891;22;20087;-91
2021/10/24 01:38:53;;;;;;;8.07;5.10;;;5.70;77.60;;;;;;6251524;22;20007;-91
2021/10/24 01:41:23;;;;;;;8.32;5.57;;;5.70;77.50;;;;;;6251351;22;20003;-91
2021/10/24 01:43:49;;;;;;;11.48;3.85;;;5.80;77.70;;;;;;6251227;22;20431;-91
2021/10/24 01:46:15;;;;;;;5.53;3.85;;;5.80;77.40;;;;;;6251613;22;20007;-91
2021/10/24 01:48:43;;;;;;;6.78;3.85;;;5.80;77.40;;;;;;6251440;22;20090;-91
2021/10/24 01:51:12;;;;;;;7.05;3.47;;;5.80;78.00;;;;;;6251336;22;20058;-91
2021/10/24 01:53:41;;;;;;;5.07;3.85;;;5.80;77.90;;;;;;6251152;22;20003;-92
2021/10/24 01:56:07;;;;;;;6.68;3.85;;;5.90;77.80;;;;;;6251560;22;20319;-91
2021/10/24 01:58:34;;;;;;;7.20;3.95;;;5.90;77.60;;;;;;6251687;22;20007;-91
2021/10/24 02:01:01;;;;;;;9.05;3.42;;;5.90;78.10;;;;;;6251614;22;19996;-92
2021/10/24 02:03:26;;;;;;;5.40;3.72;;;5.90;77.80;;;;;;6250993;22;20070;-92
2021/10/24 02:05:55;;;;;;;7.28;4.15;;;5.90;78.10;;;;;;6251165;22;20023;-92
2021/10/24 02:08:21;;;;;;;9.07;4.55;;;5.90;78.20;;;;;;6252049;22;20012;-91
2021/10/24 02:10:48;;;;;;;7.00;3.58;;;6.00;78.80;;;;;;6251186;22;20003;-92
2021/10/24 02:13:14;;;;;;;8.32;5.25;;;5.90;78.60;;;;;;6251244;22;20003;-91
2021/10/24 02:15:40;;;;;;;7.45;3.97;;;5.90;79.00;;;;;;6252826;22;20004;-91
2021/10/24 02:18:11;;;;;;;9.25;4.60;;;6.00;79.10;;;;;;6253331;22;20008;-92
2021/10/24 02:20:38;;;;;;;6.03;3.95;;;5.90;79.20;;;;;;6252911;22;19999;-91
2021/10/24 02:23:06;;;;;;;6.57;3.90;;;5.90;79.10;;;;;;6253097;22;20027;-92
2021/10/24 02:25:33;;;;;;;7.53;4.18;;;5.90;79.30;;;;;;6253047;22;20129;-92
2021/10/24 02:28:00;;;;;;;7.47;3.92;;;5.90;79.40;;;;;;6252916;22;20020;-92
2021/10/24 02:30:25;;;;;;;7.30;3.83;;;6.00;79.60;;;;;;6253719;22;20316;-92
2021/10/24 02:32:54;;;;;;;6.97;3.22;;;6.00;79.50;;;;;;6253040;22;19996;-92
2021/10/24 02:35:25;;;;;;;6.10;3.88;;;6.00;79.50;;;;;;6280315;22;19992;-92
2021/10/24 02:37:52;;;;;;;11.93;4.03;;;6.00;79.70;;;;;;6253346;22;20008;-92
2021/10/24 02:40:17;;;;;;;8.20;4.38;;;6.00;79.90;;;;;;6252760;22;19996;-91
2021/10/24 02:42:48;;;;;;;9.85;4.50;;;6.00;80.10;;;;;;6279733;22;20052;-92
2021/10/24 02:45:14;;;;;;;11.90;4.82;;;6.10;79.80;;;;;;6252945;22;20003;-92
2021/10/24 02:47:40;;;;;;;6.20;3.58;;;6.10;80.40;;;;;;6252505;22;20004;-93
2021/10/24 02:50:07;;;;;;;10.13;4.68;;;6.10;80.50;;;;;;6252586;22;20007;-93
2021/10/24 02:52:33;;;;;;;18.33;4.93;;;6.10;80.30;;;;;;6279902;22;20386;-93
2021/10/24 02:54:59;;;;;;;8.10;4.07;;;6.10;80.60;;;;;;6253128;22;20327;-93
2021/10/24 02:57:25;;;;;;;6.35;3.80;;;6.10;81.00;;;;;;6252934;22;20100;-93
2021/10/24 02:59:50;;;;;;;6.35;4.00;;;6.10;80.70;;;;;;6252567;22;20423;-92
2021/10/24 03:02:16;;;;;;;7.93;3.85;;;6.10;80.90;;;;;;6252320;22;20003;-92
2021/10/24 03:04:42;;;;;;;9.52;5.28;;;6.10;80.90;;;;;;6252814;22;20003;-92
2021/10/24 03:07:08;;;;;;;7.18;4.68;;;6.10;81.10;;;;;;6252765;22;20043;-93
2021/10/24 03:09:43;;;;;;;10.95;4.05;;;6.10;81.00;;;;;;6253409;22;20378;-92
2021/10/24 03:12:11;;;;;;;10.50;4.13;;;6.10;81.20;;;;;;6253074;22;20003;-92
2021/10/24 03:14:37;;;;;;;8.60;4.82;;;6.10;81.90;;;;;;6252552;22;20003;-93
2021/10/24 03:17:05;;;;;;;6.70;4.22;;;6.10;82.00;;;;;;6252811;22;20362;-93
2021/10/24 03:19:31;;;;;;;7.72;4.47;;;6.10;81.90;;;;;;6253303;22;20007;-93
2021/10/24 03:21:59;;;;;;;8.57;4.40;;;6.10;81.80;;;;;;6252694;22;20482;-93
2021/10/24 03:24:25;;;;;;;5.63;3.40;;;6.10;81.90;;;;;;6252530;22;20084;-93
2021/10/24 03:26:51;;;;;;;11.48;3.95;;;6.10;81.90;;;;;;6251634;22;20040;-93
2021/10/24 03:29:19;;;;;;;6.85;3.17;;;6.10;82.00;;;;;;6252118;22;20012;-92
2021/10/24 03:31:45;;;;;;;6.57;3.47;;;6.10;82.00;;;;;;6251954;22;20016;-92
2021/10/24 03:34:11;;;;;;;5.95;3.65;;;6.10;81.90;;;;;;6252366;22;20423;-91
2021/10/24 03:36:36;;;;;;;5.35;2.88;;;6.10;81.80;;;;;;6252443;22;20046;-91
2021/10/24 03:39:05;;;;;;;6.18;3.22;;;6.10;81.70;;;;;;6252344;22;20061;-92
2021/10/24 03:41:36;;;;;;;5.55;3.75;;;6.20;82.20;;;;;;6252604;22;20023;-93
2021/10/24 03:44:02;;;;;;;7.32;3.45;;;6.20;82.40;;;;;;6252640;22;20007;-93
2021/10/24 03:46:31;;;;;;;5.63;3.50;;;6.20;82.30;;;;;;6252518;22;20000;-93
2021/10/24 03:48:58;;;;;;;7.90;2.95;;;6.20;82.30;;;;;;6252154;22;20019;-93
2021/10/24 03:51:24;;;;;;;5.70;3.67;;;6.20;82.30;;;;;;6252521;22;20052;-92
2021/10/24 03:54:25;;;;;;;;;;;;;;;;;;;;;
2021/10/24 03:56:58;;;;;;;9.27;3.90;;;6.20;83.90;;;;;;6278855;22;20059;-92
2021/10/24 03:59:36;;;;;;;8.85;3.42;;;6.20;82.70;;;;;;6252814;22;20011;-93
2021/10/24 04:02:13;;;;;;;7.28;3.28;;;6.20;82.50;;;;;;6252836;22;20501;-93
2021/10/24 04:04:53;;;;;;;4.70;2.60;;;6.20;82.80;;;;;;6252209;22;19999;-93
2021/10/24 04:07:21;;;;;;;5.63;3.33;;;6.20;82.70;;;;;;6253254;22;19996;-93
2021/10/24 04:09:47;;;;;;;5.50;3.15;;;6.20;83.20;;;;;;6252368;22;20011;-93
2021/10/24 04:12:13;;;;;;;5.93;2.70;;;6.20;83.20;;;;;;6251925;22;19996;-93
2021/10/24 04:14:41;;;;;;;7.38;2.75;;;6.20;83.30;;;;;;6278792;22;20322;-92
2021/10/24 04:17:07;;;;;;;6.55;3.05;;;6.20;83.50;;;;;;6251850;22;20053;-92
2021/10/24 04:19:36;;;;;;;5.45;3.67;;;6.20;83.50;;;;;;6251955;22;20004;-92
2021/10/24 04:22:24;;;;;;;7.00;3.13;;;6.20;83.40;;;;;;6252052;22;20007;-92
2021/10/24 04:24:49;;;;;;;8.38;4.85;;;6.20;83.30;;;;;;6251802;22;20010;-92
2021/10/24 04:27:27;;;;;;;4.70;3.05;;;6.20;83.20;;;;;;6251549;22;20083;-92
2021/10/24 04:30:04;;;;;;;7.82;3.22;;;6.20;83.30;;;;;;6251461;22;20430;-92
2021/10/24 04:32:30;;;;;;;5.57;3.15;;;6.20;83.60;;;;;;6252031;22;20006;-91
2021/10/24 04:35:05;;;;;;;4.53;3.30;;;6.20;83.30;;;;;;6252168;22;20027;-91
2021/10/24 04:37:35;;;;;;;8.95;3.38;;;6.20;83.60;;;;;;6252199;22;20045;-92
2021/10/24 04:40:07;;;;;;;9.65;3.80;;;6.10;83.90;;;;;;6253499;22;20004;-91
2021/10/24 04:42:39;;;;;;;4.93;3.40;;;6.10;84.20;;;;;;6251722;22;20043;-92
2021/10/24 04:45:06;;;;;;;7.35;3.40;;;6.10;84.20;;;;;;6252670;22;19999;-92
2021/10/24 04:47:32;;;;;;;7.90;3.38;;;6.10;84.40;;;;;;6251897;22;20058;-92
2021/10/24 04:49:58;;;;;;;4.28;2.65;;;6.00;84.70;;;;;;6278470;22;20004;-92
2021/10/24 04:52:24;;;;;;;9.82;3.53;;;6.00;85.20;;;;;;6251481;22;20411;-91
2021/10/24 04:54:59;;;;;;;5.22;3.60;;;6.10;85.00;;;;;;6251528;22;20034;-91
2021/10/24 04:57:25;;;;;;;3.92;3.33;;;6.10;85.60;;;;;;6252268;22;20023;-91
2021/10/24 04:59:51;;;;;;;5.82;2.78;;;6.00;85.60;;;;;;6252239;22;20423;-93
2021/10/24 05:02:17;;;;;;;7.07;3.60;;;6.10;86.00;;;;;;6251120;22;20091;-92
2021/10/24 05:04:47;;;;;;;4.93;3.47;;;6.10;85.90;;;;;;6251765;22;20031;-91
2021/10/24 05:07:18;;;;;;;5.13;3.67;;;6.10;86.60;;;;;;6251560;22;20011;-93
2021/10/24 05:09:44;;;;;;;6.50;3.80;;;6.10;86.60;;;;;;6251413;22;20450;-91
2021/10/24 05:12:10;;;;;;;5.68;2.95;;;6.10;86.50;;;;;;6251090;22;20000;-91
2021/10/24 05:14:35;;;;;;;6.45;3.42;;;6.10;86.40;;;;;;6251086;22;20000;-92
2021/10/24 05:17:04;;;;;;;4.72;2.35;;;6.10;86.20;;;;;;6252242;22;20000;-91
2021/10/24 05:19:35;;;;;;;4.60;2.72;;;6.20;86.40;;;;;;6251776;22;20014;-92
2021/10/24 05:22:01;;;;;;;5.55;3.15;;;6.20;86.50;;;;;;6251390;22;20003;-92
2021/10/24 05:24:27;;;;;;;5.15;3.38;;;6.20;86.20;;;;;;6251501;22;20073;-92
2021/10/24 05:26:53;;;;;;;5.18;2.70;;;6.20;86.60;;;;;;6251204;22;20443;-91
2021/10/24 05:29:24;;;;;;;7.20;3.45;;;6.30;86.30;;;;;;6251109;22;20011;-92
2021/10/24 05:31:52;;;;;;;8.50;3.03;;;6.30;86.80;;;;;;6251444;22;19996;-92
2021/10/24 05:34:34;;;;;;;5.38;2.63;;;6.30;87.00;;;;;;6251053;22;20026;-92
2021/10/24 05:37:16;;;;;;;5.70;2.90;;;6.30;87.30;;;;;;6252315;22;19999;-92
2021/10/24 05:39:49;;;;;;;6.70;4.30;;;6.40;86.60;;;;;;6245993;23;20031;-92
2021/10/24 05:42:15;;;;;;;4.00;2.75;;;6.40;86.70;;;;;;6249415;22;19996;-91
2021/10/24 05:44:51;;;;;;;;;;;;;;;;;;;;;
2021/10/24 05:47:19;;;;;;;6.05;3.20;;;6.50;86.90;;;;;;6278515;22;20095;-92
2021/10/24 05:49:48;;;;;;;5.82;4.05;;;6.50;86.90;;;;;;6252058;22;20011;-91
2021/10/24 05:52:14;;;;;;;10.13;3.33;;;6.60;87.10;;;;;;6253412;22;20078;-92
2021/10/24 05:54:39;;;;;;;4.90;3.67;;;6.60;87.00;;;;;;6252906;22;20027;-91
2021/10/24 05:57:06;;;;;;;5.60;2.80;;;6.60;87.40;;;;;;6280443;22;20022;-91
2021/10/24 05:59:32;;;;;;;5.45;2.83;;;6.70;87.20;;;;;;6253164;22;20038;-92
2021/10/24 06:01:57;;;;;;;6.57;2.65;;;6.70;87.20;;;;;;6252586;22;20004;-92
2021/10/24 06:04:25;;;;;;;5.43;3.03;;;6.80;87.30;;;;;;6253944;22;20000;-92
2021/10/24 06:07:06;;;;;;;4.25;2.95;;;6.80;87.00;;;;;;6253956;22;19995;-92
2021/10/24 06:15:08;;;;;;;9.98;4.57;;;7.00;87.00;;;;;;6296380;22;20007;-92
2021/10/24 06:17:55;;;;;;;6.32;3.72;;;7.00;87.30;;;;;;6258387;22;20003;-93
2021/10/24 06:20:33;;;;;;;8.60;3.22;;;7.10;87.50;;;;;;6275586;22;20014;-93
2021/10/24 06:23:29;;;;;;;8.23;3.85;;;7.10;87.60;;;;;;6280626;22;20008;-93
2021/10/24 06:29:08;;;;;;;;;;;;;;;;;;;;;
2021/10/24 06:32:05;;;;;;;12.40;3.80;;;7.30;88.00;;;;;;6281097;22;20091;-93
2021/10/24 06:34:44;;;;;;;9.32;3.58;;;7.30;88.60;;;;;;6279872;22;20304;-92
2021/10/24 06:37:10;;;;;;;6.45;3.17;;;7.40;87.90;;;;;;6253067;22;20004;-93
2021/10/24 06:42:55;;;;;;;6.43;3.28;;;7.50;87.70;;;;;;6263469;22;19996;-92
2021/10/24 06:45:49;;;;;;;8.27;3.28;;;7.70;88.30;;;;;;6252796;22;20493;-93
2021/10/24 06:48:18;;;;;;;4.70;3.47;;;7.70;87.40;;;;;;6278522;22;20331;-92
2021/10/24 06:50:44;;;;;;;7.70;4.40;;;7.80;87.30;;;;;;6251941;22;20431;-93
2021/10/24 06:53:41;;;;;;;6.32;3.65;;;7.90;87.40;;;;;;6251741;22;19999;-92
2021/10/24 06:56:16;;;;;;;5.32;3.03;;;8.00;87.20;;;;;;6245040;22;20315;-91
2021/10/24 06:59:42;;;;;;;5.50;3.28;;;8.00;86.90;;;;;;6252532;22;20003;-92
2021/10/24 07:09:52;;;;;;;10.07;3.03;;;8.30;86.50;;;;;;6097789;23;20050;-93
2021/10/24 07:15:53;;;;;;;5.13;3.53;;;8.30;86.50;;;;;;6041670;23;20018;-93
2021/10/24 07:19:05;;;;;;;5.25;3.22;;;8.40;86.40;;;;;;6018666;23;20466;-92
2021/10/24 07:22:33;;;;;;;;;;;;;;;;;;;;;
2021/10/24 07:32:07;;;;;;;5.45;3.00;;;8.80;85.60;;;;;;6010563;23;20419;-93
2021/10/24 07:35:21;;;;;;;6.85;4.38;;;8.90;85.00;;;;;;6045439;23;20034;-94
2021/10/24 07:38:03;;;;;;;7.75;3.50;;;8.90;84.60;;;;;;6102521;23;20032;-91
2021/10/24 07:41:00;;;;;;;4.38;3.13;;;8.90;84.60;;;;;;5956066;24;20008;-91
2021/10/24 07:43:58;;;;;;;7.90;4.30;;;8.90;84.70;;;;;;6122506;23;20006;-94
2021/10/24 07:46:58;;;;;;;;;;;;;;;;;;;;;
2021/10/24 07:50:29;;;;;;;7.25;3.22;;;9.00;84.70;;;;;;6237111;23;20099;-94
2021/10/24 07:53:00;;;;;;;8.55;3.50;;;9.00;84.30;;;;;;6235053;23;20305;-92
2021/10/24 07:56:19;;;;;;;12.25;4.45;;;8.90;84.20;;;;;;6222448;23;20000;-93
2021/10/24 07:59:37;;;;;;;8.40;4.20;;;8.90;84.60;;;;;;6127172;23;20010;-91
2021/10/24 08:02:22;;;;;;;11.00;4.25;;;8.80;85.30;;;;;;6012016;23;20083;-92
2021/10/24 08:11:52;;;;;;;6.45;4.00;;;8.90;85.50;;;;;;6156824;23;20017;-92
2021/10/24 08:14:52;;;;;;;7.47;4.25;;;8.90;85.20;;;;;;6131236;23;20008;-92
2021/10/24 08:21:34;;;;;;;;;;;;;;;;;;;;;
2021/10/24 08:28:01;;;;;;;;;;;;;;;;;;;;;
2021/10/24 08:34:03;;;;;;;8.38;3.20;;;8.80;86.00;;;;;;6096350;23;20065;-92
2021/10/24 08:36:32;;;;;;;6.55;4.18;;;8.90;85.80;;;;;;6072909;23;20034;-91
2021/10/24 08:39:58;;;;;;;;;;;;;;;;;;;;;
2021/10/24 08:42:59;;;;;;;6.90;3.58;;;9.00;85.60;;;;;;6124922;23;20513;-92
2021/10/24 08:45:55;;;;;;;;;;;;;;;;;;;;;
2021/10/24 08:48:41;;;;;;;;;;;;;;;;;;;;;
2021/10/24 08:51:38;;;;;;;7.07;3.88;;;9.30;84.70;;;;;;6239808;23;20083;-93
2021/10/24 08:55:05;;;;;;;8.02;3.58;;;9.30;84.50;;;;;;6245946;23;19993;-93
2021/10/24 09:45:16;;;;;;;;;;;;;;;;;;;;;
2021/10/24 09:48:44;;;;;;;;;;;;;;;;;;;;;
2021/10/24 09:52:18;;;;;;;;;;;;;;;;;;;;;
2021/10/24 09:58:55;;;;;;;;;;;;;;;;;;;;;
2021/10/24 12:23:37;;;;;;;1.92;1.55;;;9.60;74.10;;;;;;6133641;23;20025;-93
2021/10/24 12:26:11;;;;;;;2.70;1.70;;;9.60;74.00;;;;;;6232076;23;20000;-91
2021/10/24 12:28:47;;;;;;;3.63;2.03;;;9.50;74.60;;;;;;6230766;23;20087;-93
2021/10/24 12:31:24;;;;;;;2.08;1.70;;;9.50;75.10;;;;;;6235241;23;20003;-92
2021/10/24 13:41:04;;;;;;;;;;;;;;;;;;;;;
2021/10/24 14:52:29;;;;;;;;;;;;;;;;;;;;;
2021/10/24 14:55:02;;;;;;;3.28;1.88;;;8.00;81.50;;;;;;5985269;24;20068;-92
2021/10/24 15:00:50;;;;;;;5.53;1.63;;;7.90;82.00;;;;;;5980644;24;20023;-89
2021/10/24 15:06:57;;;;;;;;;;;;;;;;;;;;;
2021/10/24 15:12:49;;;;;;;3.00;1.90;;;7.90;82.30;;;;;;6098780;23;20046;-90
2021/10/24 15:21:34;;;;;;;5.63;2.45;;;7.90;82.40;;;;;;6031865;23;20077;-91
2021/10/24 15:24:06;;;;;;;4.47;2.90;;;7.90;82.40;;;;;;6101952;23;20003;-90
2021/10/24 15:26:34;;;;;;;8.30;3.53;;;8.00;82.60;;;;;;6162195;23;20454;-91
2021/10/24 15:29:01;;;;;;;8.38;3.78;;;7.90;82.80;;;;;;6163091;23;20001;-90
2021/10/24 15:31:40;;;;;;;5.32;2.63;;;7.90;83.50;;;;;;6188567;23;20008;-92
2021/10/24 15:37:31;;;;;;;4.78;2.33;;;7.90;83.50;;;;;;6188422;23;20111;-90
2021/10/24 15:43:23;;;;;;;4.95;2.67;;;7.90;83.20;;;;;;6188829;23;20112;-91
2021/10/24 15:45:49;;;;;;;6.18;2.88;;;7.90;83.40;;;;;;6161850;23;19997;-92
2021/10/24 15:48:21;;;;;;;6.00;2.58;;;7.90;83.20;;;;;;6135797;23;20051;-91
2021/10/24 15:50:47;;;;;;;14.27;3.20;;;7.90;83.30;;;;;;6160095;23;20008;-92
2021/10/24 15:53:14;;;;;;;3.58;2.33;;;7.90;83.10;;;;;;6159107;23;20001;-93
2021/10/24 15:55:55;;;;;;;5.63;2.90;;;7.90;83.10;;;;;;6159397;23;19996;-92
2021/10/24 15:58:27;;;;;;;6.63;4.45;;;7.90;83.10;;;;;;6158548;23;19997;-93
2021/10/24 16:00:56;;;;;;;6.55;2.85;;;7.90;83.00;;;;;;6161367;23;20012;-91
2021/10/24 16:04:08;;;;;;;7.05;3.17;;;7.90;82.90;;;;;;6187325;23;19996;-92
2021/10/24 16:06:35;;;;;;;7.10;2.75;;;7.90;83.00;;;;;;6186698;23;20001;-92
2021/10/24 16:09:29;;;;;;;5.50;2.85;;;7.80;82.70;;;;;;6134480;23;20001;-91
2021/10/24 16:11:55;;;;;;;3.25;2.15;;;7.90;82.90;;;;;;6147816;23;20055;-92
2021/10/24 16:14:23;;;;;;;2.85;2.58;;;7.80;82.90;;;;;;6160287;23;20001;-91
2021/10/24 16:24:15;;;;;;;2.90;1.70;;;7.80;83.40;;;;;;6187488;23;20028;-91
2021/10/24 16:26:41;;;;;;;3.50;2.33;;;7.80;83.20;;;;;;6187542;23;20009;-90
2021/10/24 16:29:20;;;;;;;2.30;1.58;;;7.80;83.70;;;;;;6161345;23;20001;-90
2021/10/24 16:35:09;;;;;;;3.50;1.77;;;7.80;83.40;;;;;;6187504;23;20052;-91
2021/10/24 16:37:38;;;;;;;3.00;1.98;;;7.80;83.60;;;;;;6136376;23;20005;-90
2021/10/24 16:40:10;;;;;;;1.85;1.33;;;7.80;83.40;;;;;;6137239;23;20009;-92
2021/10/24 16:49:19;;;;;;;5.13;2.30;;;7.70;84.10;;;;;;6188627;23;20063;-91
2021/10/24 16:51:47;;;;;;;4.43;2.60;;;7.70;84.60;;;;;;6161104;23;19997;-91
2021/10/24 16:54:27;;;;;;;7.30;2.88;;;7.70;84.60;;;;;;6135829;23;20001;-93
2021/10/24 16:56:54;;;;;;;4.97;3.47;;;7.70;84.60;;;;;;6158970;23;20005;-92
2021/10/24 16:59:23;;;;;;;4.60;2.50;;;7.70;84.60;;;;;;6159631;23;20068;-91
2021/10/24 17:01:51;;;;;;;2.35;1.92;;;7.70;84.50;;;;;;6136347;23;20467;-91
2021/10/24 17:04:20;;;;;;;3.80;2.33;;;7.70;84.50;;;;;;6185856;23;20482;-92
2021/10/24 17:06:47;;;;;;;3.47;2.25;;;7.70;84.80;;;;;;6160082;23;20008;-91
2021/10/24 17:09:13;;;;;;;3.83;2.05;;;7.70;85.30;;;;;;6159771;23;19997;-92
2021/10/24 17:11:40;;;;;;;2.30;2.10;;;7.70;85.50;;;;;;6160138;23;20003;-92
2021/10/24 17:14:11;;;;;;;3.50;2.40;;;7.60;85.40;;;;;;6161887;23;20004;-92
2021/10/24 17:20:07;;;;;;;3.10;1.73;;;7.60;87.00;;;;;;6187727;23;20007;-93
2021/10/24 17:22:33;;;;;;;5.10;1.65;;;7.60;86.30;;;;;;6160847;23;20009;-93
2021/10/24 17:31:49;;;;;;;2.58;1.77;;;7.60;86.70;;;;;;6186909;23;20063;-93
2021/10/24 17:34:15;;;;;;;2.17;1.90;;;7.50;86.40;;;;;;6160928;23;20438;-92
2021/10/24 17:36:42;;;;;;;2.88;1.23;;;7.60;86.60;;;;;;6161412;23;19997;-91
2021/10/24 17:39:08;;;;;;;2.05;1.60;;;7.50;86.20;;;;;;6161997;23;20000;-93
2021/10/24 17:41:37;;;;;;;3.58;1.80;;;7.50;86.60;;;;;;6160346;23;20004;-92
2021/10/24 17:44:03;;;;;;;2.40;1.40;;;7.50;86.50;;;;;;6159932;23;19996;-91
2021/10/24 17:46:29;;;;;;;1.85;1.58;;;7.50;86.80;;;;;;6160642;23;20001;-92
2021/10/24 17:48:57;;;;;;;1.50;1.40;;;7.50;86.70;;;;;;6160583;23;20063;-92
2021/10/24 17:51:24;;;;;;;2.55;1.92;;;7.50;86.50;;;;;;6160533;23;20005;-91
2021/10/24 17:53:49;;;;;;;1.83;1.63;;;7.40;86.20;;;;;;6186798;23;19989;-92
2021/10/24 17:56:16;;;;;;;2.05;1.65;;;7.40;85.70;;;;;;6160892;23;20008;-91
2021/10/24 17:58:42;;;;;;;3.63;2.33;;;7.50;85.90;;;;;;6161087;23;20055;-92
2021/10/24 18:01:08;;;;;;;2.42;1.27;;;7.40;85.80;;;;;;6160643;23;20009;-92
2021/10/24 18:03:59;;;;;;;2.45;1.40;;;7.40;85.90;;;;;;6160733;23;20100;-95
2021/10/24 18:08:03;;;;;;;;;;;;;;;;;;;;;
2021/10/24 18:17:10;;;;;;;;;;;;;;;;;;;;;
2021/10/24 18:23:26;;;;;;;3.17;2.33;;;7.30;88.60;;;;;;6177429;23;20001;-92
2021/10/24 18:37:04;;;;;;;;;;;;;;;;;;;;;
2021/10/24 18:40:17;;;;;;;;;;;;;;;;;;;;;
2021/10/24 18:43:32;;;;;;;3.60;2.30;;;7.20;89.40;;;;;;5943230;24;20013;-94
2021/10/24 18:53:46;;;;;;;;;;;;;;;;;;;;;
2021/10/24 19:00:46;;;;;;;;;;;;;;;;;;;;;
2021/10/24 19:04:20;;;;;;;5.75;2.58;;;7.00;89.90;;;;;;5770251;24;20035;-95
2021/10/24 19:07:57;;;;;;;;;;;;;;;;;;;;;
2021/10/24 19:13:43;;;;;;;;;;;;;;;;;;;;;
2021/10/24 19:30:33;;;;;;;2.85;2.00;;;6.70;88.50;;;;;;5783778;24;20037;-94
2021/10/24 19:33:06;;;;;;;4.05;1.83;;;6.70;88.20;;;;;;5811847;24;20050;-94
2021/10/24 19:35:40;;;;;;;2.22;1.60;;;6.70;87.50;;;;;;5989582;23;20029;-94
2021/10/24 19:38:13;;;;;;;3.20;1.88;;;6.60;86.80;;;;;;6139817;23;20004;-96
2021/10/24 19:40:55;;;;;;;4.20;2.58;;;6.60;85.70;;;;;;6167155;23;20321;-96
2021/10/24 19:43:45;;;;;;;2.08;1.50;;;6.60;85.50;;;;;;6166042;23;20002;-95
2021/10/24 19:46:24;;;;;;;3.90;1.95;;;6.60;86.00;;;;;;6166812;23;19989;-96
2021/10/24 19:48:50;;;;;;;2.08;1.88;;;6.50;85.60;;;;;;6166515;23;19994;-95
2021/10/24 19:51:26;;;;;;;3.72;2.67;;;6.50;85.50;;;;;;6167552;23;20009;-96
2021/10/24 19:54:16;;;;;;;3.88;1.83;;;6.50;83.70;;;;;;6167155;23;19993;-95
2021/10/24 19:56:51;;;;;;;1.95;1.75;;;6.50;84.20;;;;;;6166989;23;20014;-95
2021/10/24 19:59:25;;;;;;;4.65;2.65;;;6.40;84.00;;;;;;6168497;23;20001;-96
2021/10/24 20:01:51;;;;;;;2.63;1.95;;;6.40;84.20;;;;;;6162074;23;20001;-95
2021/10/24 20:04:21;;;;;;;2.80;1.95;;;6.40;84.50;;;;;;6161782;23;20076;-95
2021/10/24 20:06:50;;;;;;;1.70;1.58;;;6.30;84.10;;;;;;6164830;23;19997;-95
2021/10/24 20:09:44;;;;;;;2.75;1.88;;;6.30;84.00;;;;;;6168480;23;19997;-96
2021/10/24 20:12:21;;;;;;;2.70;1.23;;;6.20;83.20;;;;;;6118768;23;20025;-95
2021/10/24 20:14:49;;;;;;;2.13;1.50;;;6.20;83.20;;;;;;6141845;23;20021;-95
2021/10/24 20:17:21;;;;;;;2.65;1.48;;;6.10;83.30;;;;;;6166252;23;19993;-95
2021/10/24 20:19:56;;;;;;;2.17;1.85;;;6.10;83.10;;;;;;6162723;23;20089;-95
2021/10/24 20:22:34;;;;;;;3.22;1.83;;;6.00;83.00;;;;;;6164352;23;20032;-95
2021/10/24 20:25:05;;;;;;;2.65;1.80;;;6.00;83.10;;;;;;6163506;23;20003;-96
2021/10/24 20:27:34;;;;;;;1.38;1.23;;;5.90;83.60;;;;;;6161334;23;20085;-95
2021/10/24 20:30:16;;;;;;;1.48;1.33;;;5.80;83.80;;;;;;6164815;23;20001;-95
2021/10/24 20:32:50;;;;;;;1.65;1.40;;;5.80;83.90;;;;;;6177817;23;20013;-95
2021/10/24 20:35:16;;;;;;;1.70;1.27;;;5.70;84.00;;;;;;6186129;23;20475;-96
2021/10/24 20:37:45;;;;;;;3.22;2.05;;;5.70;84.00;;;;;;6186090;23;20021;-94
2021/10/24 20:40:23;;;;;;;2.28;1.52;;;5.70;84.20;;;;;;6162511;23;19989;-94
2021/10/24 20:43:00;;;;;;;2.10;1.73;;;5.60;84.30;;;;;;6161838;23;20025;-96
2021/10/24 20:45:36;;;;;;;;;;;;;;;;;;;;;
2021/10/24 20:48:05;;;;;;;1.58;1.40;;;5.60;84.70;;;;;;6163249;23;20024;-95
2021/10/24 20:50:34;;;;;;;1.55;1.45;;;5.50;84.90;;;;;;6186178;23;19998;-94
2021/10/24 20:53:07;;;;;;;2.60;1.70;;;5.50;85.00;;;;;;6187769;23;20439;-94
2021/10/24 20:55:33;;;;;;;2.80;1.83;;;5.60;85.00;;;;;;6185745;23;20001;-95
2021/10/24 20:58:01;;;;;;;1.85;1.30;;;5.60;84.80;;;;;;6189305;23;20002;-94
2021/10/24 21:00:40;;;;;;;2.72;1.75;;;5.60;84.80;;;;;;6190679;23;20010;-93
2021/10/24 21:03:08;;;;;;;2.03;1.65;;;5.60;84.70;;;;;;6187589;23;20044;-94
2021/10/24 21:05:39;;;;;;;1.63;1.52;;;5.60;84.80;;;;;;6186821;23;19997;-95
2021/10/24 21:08:17;;;;;;;1.50;1.40;;;5.70;85.40;;;;;;6187671;23;20005;-94
2021/10/24 21:10:50;;;;;;;1.30;1.20;;;5.70;84.80;;;;;;6187523;23;20002;-95
2021/10/24 21:13:18;;;;;;;0.85;0.85;;;5.70;84.60;;;;;;6184214;23;20076;-95
2021/10/24 21:16:04;;;;;;;1.50;1.30;;;5.70;84.50;;;;;;6184029;23;19994;-94
2021/10/24 21:18:50;;;;;;;2.72;1.73;;;5.70;84.00;;;;;;6183636;23;20001;-95
2021/10/24 21:21:36;;;;;;;3.00;1.95;;;5.70;83.90;;;;;;6185254;23;20005;-95
2021/10/24 21:24:14;;;;;;;2.80;1.48;;;5.70;84.00;;;;;;6184239;23;20017;-94
2021/10/24 21:26:45;;;;;;;2.15;1.33;;;5.70;84.00;;;;;;6183487;23;20401;-92
2021/10/24 21:29:13;;;;;;;2.88;1.30;;;5.70;84.00;;;;;;6183165;23;19994;-94
2021/10/24 21:31:44;;;;;;;2.30;2.08;;;5.70;83.40;;;;;;6164081;23;20044;-94
2021/10/24 21:34:15;;;;;;;2.25;1.60;;;5.70;83.60;;;;;;6163649;23;19993;-95
2021/10/24 21:36:44;;;;;;;3.47;1.10;;;5.70;83.30;;;;;;6164059;23;20001;-93
2021/10/24 21:39:14;;;;;;;2.22;1.10;;;5.70;83.30;;;;;;6164237;23;20025;-94
2021/10/24 21:41:42;;;;;;;2.60;1.48;;;5.70;83.30;;;;;;6191715;23;20055;-95
2021/10/24 21:44:11;;;;;;;0.90;0.88;;;5.80;83.00;;;;;;6164091;23;19993;-94
2021/10/24 21:46:40;;;;;;;1.35;1.20;;;5.80;82.50;;;;;;6164930;23;19993;-94
2021/10/24 21:49:06;;;;;;;1.70;1.10;;;5.80;82.50;;;;;;6165216;23;20008;-94
2021/10/24 21:51:37;;;;;;;0.80;0.80;;;5.90;82.10;;;;;;6164052;23;20001;-94
2021/10/24 21:54:03;;;;;;;2.58;1.38;;;5.90;81.80;;;;;;6164458;23;20007;-94
2021/10/24 21:56:44;;;;;;;;;;;;;;;;;;;;;
2021/10/24 21:59:11;;;;;;;1.27;1.17;;;6.00;81.40;;;;;;6190952;23;20065;-94
2021/10/24 22:01:43;;;;;;;1.05;0.90;;;6.00;81.60;;;;;;6164509;23;20005;-95
2021/10/24 22:04:18;;;;;;;0.80;0.80;;;6.00;81.60;;;;;;6163905;23;20032;-94